createdAt,value
2019-03-08T00:02:52.493Z,59.45
2019-03-08T00:06:57.560Z,59.47
2019-03-08T00:11:02.434Z,59.37
2019-03-08T00:15:10.167Z,59.25
2019-03-08T00:19:15.069Z,59.06
2019-03-08T00:23:19.955Z,58.99
2019-03-08T00:27:24.837Z,58.92
2019-03-08T00:31:29.732Z,58.94
2019-03-08T00:35:34.617Z,59.12
2019-03-08T00:39:39.505Z,63.53
2019-03-08T00:43:44.403Z,58.71
2019-03-08T00:47:49.284Z,58.64
2019-03-08T00:51:54.169Z,58.90
2019-03-08T00:55:59.058Z,59.31
2019-03-08T01:00:13.047Z,59.57
2019-03-08T01:04:19.026Z,59.57
2019-03-08T01:08:23.890Z,59.68
2019-03-08T01:12:28.777Z,59.68
2019-03-08T01:16:33.832Z,60.00
2019-03-08T01:20:38.723Z,59.93
2019-03-08T01:24:43.609Z,59.77
2019-03-08T01:28:48.483Z,59.45
2019-03-08T01:32:53.371Z,59.06
2019-03-08T01:36:58.264Z,59.32
2019-03-08T01:41:03.158Z,59.57
2019-03-08T01:45:08.322Z,59.45
2019-03-08T01:49:13.202Z,59.36
2019-03-08T01:53:18.096Z,59.05
2019-03-08T01:57:22.991Z,58.70
2019-03-08T02:01:27.877Z,58.17
2019-03-08T02:05:32.759Z,57.95
2019-03-08T02:09:37.640Z,56.17
2019-03-08T02:13:42.620Z,56.12
2019-03-08T02:17:47.573Z,55.28
2019-03-08T02:21:52.469Z,53.15
2019-03-08T02:25:57.366Z,53.47
2019-03-08T02:30:02.258Z,53.84
2019-03-08T02:34:08.211Z,53.97
2019-03-08T02:38:13.112Z,53.83
2019-03-08T02:42:18.279Z,53.86
2019-03-08T02:46:23.170Z,53.67
2019-03-08T02:50:28.050Z,53.67
2019-03-08T02:54:34.454Z,53.61
2019-03-08T02:58:39.408Z,53.47
2019-03-08T03:02:44.302Z,53.28
2019-03-08T03:06:49.182Z,53.28
2019-03-08T03:10:54.090Z,53.54
2019-03-08T03:14:58.981Z,53.61
2019-03-08T03:19:03.940Z,53.61
2019-03-08T03:23:08.829Z,53.22
2019-03-08T03:27:13.723Z,53.16
2019-03-08T03:31:18.610Z,58.97
2019-03-08T03:35:23.491Z,52.67
2019-03-08T03:39:28.385Z,52.58
2019-03-08T03:43:33.276Z,52.80
2019-03-08T03:47:38.163Z,52.58
2019-03-08T03:51:43.052Z,52.90
2019-03-08T03:55:47.945Z,53.00
2019-03-08T03:59:52.839Z,53.09
2019-03-08T04:03:57.724Z,52.80
2019-03-08T04:08:02.608Z,52.77
2019-03-08T04:12:07.508Z,52.97
2019-03-08T04:16:12.386Z,53.07
2019-03-08T04:20:21.452Z,53.35
2019-03-08T04:24:26.357Z,53.58
2019-03-08T04:28:31.511Z,53.84
2019-03-08T04:32:36.403Z,54.25
2019-03-08T04:36:41.291Z,54.33
2019-03-08T04:40:46.178Z,54.50
2019-03-08T04:44:51.072Z,54.60
2019-03-08T04:48:55.956Z,54.76
2019-03-08T04:53:00.843Z,54.72
2019-03-08T04:57:06.006Z,54.79
2019-03-08T05:01:10.900Z,54.66
2019-03-08T05:05:15.867Z,54.59
2019-03-08T05:09:20.746Z,54.66
2019-03-08T05:13:25.634Z,54.70
2019-03-08T05:17:30.526Z,54.64
2019-03-08T05:21:35.423Z,58.09
2019-03-08T05:25:40.593Z,54.05
2019-03-08T05:29:45.465Z,53.93
2019-03-08T05:33:50.354Z,54.12
2019-03-08T05:37:55.248Z,53.89
2019-03-08T05:42:00.137Z,54.36
2019-03-08T05:46:05.027Z,54.46
2019-03-08T05:50:11.926Z,54.67
2019-03-08T05:54:17.183Z,54.82
2019-03-08T05:58:22.072Z,54.92
2019-03-08T06:02:26.960Z,55.13
2019-03-08T06:06:31.853Z,55.47
2019-03-08T06:10:37.673Z,55.48
2019-03-08T06:14:42.572Z,55.59
2019-03-08T06:18:47.477Z,55.66
2019-03-08T06:22:52.357Z,55.47
2019-03-08T06:26:57.247Z,55.99
2019-03-08T06:31:02.406Z,56.51
2019-03-08T06:35:07.806Z,56.45
2019-03-08T06:39:12.698Z,56.60
2019-03-08T06:43:17.588Z,56.52
2019-03-08T06:47:22.485Z,56.14
2019-03-08T06:51:28.431Z,56.46
2019-03-08T06:55:33.326Z,56.13
2019-03-08T06:59:40.037Z,56.39
2019-03-08T07:03:44.926Z,61.86
2019-03-08T07:07:49.820Z,55.79
2019-03-08T07:11:54.696Z,54.03
2019-03-08T07:15:59.589Z,54.25
2019-03-08T07:20:07.758Z,54.92
2019-03-08T07:24:30.552Z,54.92
2019-03-08T07:28:46.199Z,55.86
2019-03-08T07:32:55.750Z,56.16
2019-03-08T07:37:17.106Z,56.47
2019-03-08T07:41:23.652Z,56.90
2019-03-08T07:45:36.126Z,57.01
2019-03-08T07:50:01.119Z,57.52
2019-03-08T07:54:11.659Z,58.07
2019-03-08T07:58:34.572Z,58.42
2019-03-08T08:02:46.802Z,58.30
2019-03-08T08:06:53.335Z,58.54
2019-03-08T08:11:16.230Z,61.55
2019-03-08T08:15:39.000Z,62.61
2019-03-08T08:19:48.295Z,61.41
2019-03-08T08:23:54.837Z,55.30
2019-03-08T08:28:01.374Z,56.59
2019-03-08T08:32:10.901Z,57.07
2019-03-08T08:36:29.507Z,57.12
2019-03-08T08:40:52.482Z,57.92
2019-03-08T08:45:17.318Z,58.77
2019-03-08T08:49:33.101Z,59.02
2019-03-08T08:53:51.486Z,59.09
2019-03-08T08:58:00.675Z,59.60
2019-03-08T09:02:08.248Z,60.04
2019-03-08T09:06:20.707Z,60.42
2019-03-08T09:10:43.402Z,60.73
2019-03-08T09:15:05.203Z,61.18
2019-03-08T09:19:37.874Z,61.78
2019-03-08T09:23:44.719Z,62.54
2019-03-08T09:27:53.918Z,63.27
2019-03-08T09:32:06.404Z,64.49
2019-03-08T09:36:19.028Z,64.94
2019-03-08T09:40:31.506Z,64.78
2019-03-08T09:44:40.901Z,64.80
2019-03-08T09:48:53.695Z,64.85
2019-03-08T09:53:15.486Z,65.07
2019-03-08T09:57:38.279Z,64.50
2019-03-08T10:01:53.728Z,64.30
2019-03-08T10:06:09.828Z,63.94
2019-03-08T10:10:16.356Z,63.97
2019-03-08T10:14:34.688Z,63.98
2019-03-08T10:18:41.220Z,63.48
2019-03-08T10:22:50.489Z,62.99
2019-03-08T10:26:57.034Z,62.18
2019-03-08T10:31:09.255Z,61.41
2019-03-08T10:35:24.497Z,61.53
2019-03-08T10:39:47.401Z,61.51
2019-03-08T10:43:56.862Z,60.79
2019-03-08T10:48:06.329Z,61.41
2019-03-08T10:52:17.582Z,61.26
2019-03-08T10:56:21.102Z,61.52
2019-03-08T11:00:27.652Z,61.89
2019-03-08T11:04:50.501Z,62.68
2019-03-08T11:09:13.282Z,61.96
2019-03-08T11:13:19.810Z,61.80
2019-03-08T11:17:29.040Z,61.15
2019-03-08T11:21:38.471Z,61.77
2019-03-08T11:25:45.006Z,61.60
2019-03-08T11:30:00.625Z,60.64
2019-03-08T11:34:07.161Z,60.53
2019-03-08T11:38:16.414Z,60.96
2019-03-08T11:42:22.941Z,61.05
2019-03-08T11:46:32.660Z,61.48
2019-03-08T11:50:57.573Z,61.09
2019-03-08T11:55:18.941Z,58.23
2019-03-08T11:59:28.143Z,58.33
2019-03-08T12:03:34.678Z,59.88
2019-03-08T12:07:41.195Z,58.73
2019-03-08T12:11:59.666Z,58.15
2019-03-08T12:16:08.882Z,59.38
2019-03-08T12:20:33.808Z,59.45
2019-03-08T12:24:40.346Z,58.77
2019-03-08T12:28:50.120Z,59.34
2019-03-08T12:33:11.973Z,57.87
2019-03-08T12:37:27.276Z,57.03
2019-03-08T12:41:36.733Z,56.13
2019-03-08T12:45:55.471Z,54.23
2019-03-08T12:50:11.222Z,54.66
2019-03-08T12:54:23.749Z,51.98
2019-03-08T12:58:40.452Z,50.06
2019-03-08T13:02:46.996Z,47.52
2019-03-08T13:06:56.471Z,47.78
2019-03-08T13:11:01.392Z,46.80
2019-03-08T13:15:14.888Z,47.73
2019-03-08T13:19:19.824Z,47.59
2019-03-08T13:23:24.715Z,48.27
2019-03-08T13:27:29.616Z,48.91
2019-03-08T13:31:34.514Z,47.82
2019-03-08T13:35:39.414Z,48.16
2019-03-08T13:39:44.318Z,48.50
2019-03-08T13:43:49.215Z,47.07
2019-03-08T13:47:54.117Z,47.37
2019-03-08T13:51:59.023Z,47.23
2019-03-08T13:56:03.989Z,46.65
2019-03-08T14:00:11.947Z,46.08
2019-03-08T14:04:16.841Z,46.02
2019-03-08T14:08:21.762Z,46.35
2019-03-08T14:12:26.661Z,45.78
2019-03-08T14:16:31.573Z,44.75
2019-03-08T14:20:36.759Z,45.39
2019-03-08T14:24:41.650Z,45.11
2019-03-08T14:28:46.539Z,45.65
2019-03-08T14:32:51.453Z,45.33
2019-03-08T14:36:56.348Z,44.78
2019-03-08T14:41:05.813Z,43.43
2019-03-08T14:45:13.177Z,43.87
2019-03-08T14:49:19.301Z,43.39
2019-03-08T14:53:28.507Z,43.40
2019-03-08T14:57:31.282Z,43.38
2019-03-08T15:01:39.916Z,43.37
2019-03-08T15:05:44.294Z,43.28
2019-03-08T15:09:49.192Z,43.62
2019-03-08T15:13:58.095Z,43.92
2019-03-08T15:18:00.698Z,43.47
2019-03-08T15:22:05.871Z,42.74
2019-03-08T15:26:10.762Z,43.00
2019-03-08T15:30:17.769Z,42.90
2019-03-08T15:34:22.668Z,43.17
2019-03-08T15:38:27.639Z,43.65
2019-03-08T15:42:36.284Z,43.79
2019-03-08T15:46:39.408Z,43.90
2019-03-08T15:50:46.669Z,44.39
2019-03-08T15:54:50.899Z,44.96
2019-03-08T15:58:55.795Z,45.04
2019-03-08T16:03:00.871Z,44.77
2019-03-08T16:07:05.792Z,45.08
2019-03-08T16:11:10.693Z,45.83
2019-03-08T16:15:15.944Z,46.13
2019-03-08T16:19:24.400Z,46.61
2019-03-08T16:23:27.427Z,46.99
2019-03-08T16:27:32.918Z,47.49
2019-03-08T16:31:39.415Z,47.69
2019-03-08T16:35:48.780Z,48.16
2019-03-08T16:40:03.999Z,48.74
2019-03-08T16:44:10.304Z,49.89
2019-03-08T16:48:22.753Z,50.66
2019-03-08T16:52:29.044Z,50.89
2019-03-08T16:56:35.584Z,51.27
2019-03-08T17:00:47.819Z,52.25
2019-03-08T17:05:00.347Z,52.80
2019-03-08T17:09:09.927Z,52.76
2019-03-08T17:13:20.047Z,53.17
2019-03-08T17:17:32.501Z,53.87
2019-03-08T17:21:45.120Z,53.67
2019-03-08T17:26:10.001Z,54.27
2019-03-08T17:30:21.502Z,54.69
2019-03-08T17:34:28.034Z,55.10
2019-03-08T17:38:43.439Z,55.55
2019-03-08T17:43:08.265Z,56.03
2019-03-08T17:47:24.110Z,56.38
2019-03-08T17:51:46.687Z,56.68
2019-03-08T17:55:55.911Z,56.54
2019-03-08T18:00:08.424Z,56.61
2019-03-08T18:04:27.001Z,56.71
2019-03-08T18:08:33.525Z,56.90
2019-03-08T18:12:42.930Z,56.27
2019-03-08T18:16:49.464Z,57.33
2019-03-08T18:20:57.068Z,59.74
2019-03-08T18:25:06.532Z,60.19
2019-03-08T18:29:18.745Z,60.50
2019-03-08T18:33:37.259Z,60.59
2019-03-08T18:37:46.467Z,60.87
2019-03-08T18:42:02.015Z,61.18
2019-03-08T18:46:11.498Z,61.31
2019-03-08T18:50:18.040Z,61.80
2019-03-08T18:54:30.506Z,62.52
2019-03-08T18:58:51.762Z,62.45
2019-03-08T19:03:16.445Z,62.11
2019-03-08T19:07:31.598Z,61.67
2019-03-08T19:11:40.804Z,61.31
2019-03-08T19:15:47.344Z,61.04
2019-03-08T19:19:53.862Z,61.22
2019-03-08T19:24:00.401Z,60.88
2019-03-08T19:28:23.071Z,61.06
2019-03-08T19:32:47.686Z,61.01
2019-03-08T19:36:54.222Z,60.88
2019-03-08T19:41:12.823Z,60.92
2019-03-08T19:45:25.223Z,60.49
2019-03-08T19:49:34.848Z,60.29
2019-03-08T19:53:50.389Z,59.98
2019-03-08T19:57:59.596Z,59.96
2019-03-08T20:02:21.139Z,59.86
2019-03-08T20:06:30.724Z,59.60
2019-03-08T20:10:53.499Z,59.58
2019-03-08T20:15:01.107Z,59.28
2019-03-08T20:19:07.714Z,59.29
2019-03-08T20:23:14.257Z,59.26
2019-03-08T20:27:20.795Z,59.04
2019-03-08T20:31:28.392Z,58.75
2019-03-08T20:35:40.803Z,58.81
2019-03-08T20:39:53.004Z,58.81
2019-03-08T20:44:03.599Z,58.71
2019-03-08T20:48:08.493Z,58.65
2019-03-08T20:52:13.379Z,58.61
2019-03-08T20:56:18.264Z,58.48
2019-03-08T21:00:23.160Z,58.20
2019-03-08T21:04:28.139Z,58.59
2019-03-08T21:08:33.002Z,58.14
2019-03-08T21:12:37.888Z,57.88
2019-03-08T21:16:42.770Z,60.45
2019-03-08T21:20:47.664Z,57.53
2019-03-08T21:24:52.555Z,56.73
2019-03-08T21:28:57.446Z,56.65
2019-03-08T21:33:02.324Z,56.43
2019-03-08T21:37:07.373Z,56.43
2019-03-08T21:41:13.231Z,56.72
2019-03-08T21:45:18.192Z,56.76
2019-03-08T21:49:23.084Z,56.85
2019-03-08T21:53:27.972Z,56.92
2019-03-08T21:57:33.839Z,57.19
2019-03-08T22:01:38.727Z,57.39
2019-03-08T22:05:43.621Z,57.23
2019-03-08T22:09:50.157Z,57.48
2019-03-08T22:13:55.156Z,57.68
2019-03-08T22:18:00.089Z,57.69
2019-03-08T22:22:04.985Z,57.63
2019-03-08T22:26:09.875Z,57.61
2019-03-08T22:30:17.006Z,57.33
2019-03-08T22:34:21.895Z,56.88
2019-03-08T22:38:26.791Z,57.05
2019-03-08T22:42:32.648Z,56.92
2019-03-08T22:46:45.316Z,56.89
2019-03-08T22:50:44.134Z,56.90
2019-03-08T22:54:49.011Z,56.86
2019-03-08T22:58:53.904Z,57.02
2019-03-08T23:02:58.965Z,56.85
2019-03-08T23:07:03.864Z,56.70
2019-03-08T23:11:08.750Z,56.67
2019-03-08T23:15:13.635Z,56.85
2019-03-08T23:19:18.536Z,56.33
2019-03-08T23:23:23.433Z,56.23
2019-03-08T23:27:29.990Z,56.34
2019-03-08T23:31:39.636Z,56.08
2019-03-08T23:35:45.585Z,56.17
2019-03-08T23:39:50.483Z,56.07
2019-03-08T23:43:56.346Z,55.76
2019-03-08T23:48:01.239Z,56.19
2019-03-08T23:52:06.142Z,56.18
2019-03-08T23:56:11.017Z,56.16
